Time;durP1;ratioP1;P1;durP2;ratioP2;P2;SDS_P1;SDS_P2;PMS_P1;PMS_P2;Temp;Humidity;BMP_temperature;BMP_pressure;BME280_temperature;BME280_humidity;BME280_pressure;Samples;Min_cycle;Max_cycle;Signal;HPM_P1;HPM_P2
2021/06/20 00:00:26;;;;;;;8.50;6.70;;;23.60;99.90;;;;;;5113350;28;20480;-64
2021/06/20 00:02:52;;;;;;;7.33;6.57;;;23.60;99.90;;;;;;5113692;28;20990;-64
2021/06/20 00:05:22;;;;;;;7.07;6.30;;;23.40;99.90;;;;;;5114205;28;20460;-68
2021/06/20 00:07:50;;;;;;;7.20;6.60;;;23.40;99.90;;;;;;5114331;28;20427;-64
2021/06/20 00:10:21;;;;;;;8.83;6.80;;;23.50;99.90;;;;;;5113217;28;20428;-64
2021/06/20 00:12:47;;;;;;;10.13;7.20;;;23.30;99.90;;;;;;5114859;28;20404;-64
2021/06/20 00:15:16;;;;;;;9.77;6.10;;;23.10;99.90;;;;;;5114507;28;21000;-68
2021/06/20 00:17:43;;;;;;;11.23;7.10;;;23.00;99.90;;;;;;5113209;28;20421;-68
2021/06/20 00:20:10;;;;;;;11.13;7.10;;;23.00;99.90;;;;;;5114310;28;20447;-64
2021/06/20 00:22:36;;;;;;;7.27;6.53;;;23.00;99.90;;;;;;5114263;28;20503;-68
2021/06/20 00:25:03;;;;;;;12.10;6.77;;;22.90;99.90;;;;;;5114202;28;20506;-64
2021/06/20 00:27:30;;;;;;;9.53;7.00;;;23.00;99.90;;;;;;5096164;28;20279;-68
2021/06/20 00:29:55;;;;;;;8.77;6.97;;;23.00;99.90;;;;;;5112951;28;20424;-67
2021/06/20 00:32:21;;;;;;;10.27;7.20;;;22.90;99.90;;;;;;5114327;28;20415;-68
2021/06/20 00:34:46;;;;;;;7.77;7.07;;;22.90;99.90;;;;;;5114195;28;20172;-64
2021/06/20 00:37:12;;;;;;;8.70;7.40;;;22.90;99.90;;;;;;5114405;28;20312;-68
2021/06/20 00:39:37;;;;;;;8.73;6.50;;;22.90;99.90;;;;;;5114222;28;20539;-67
2021/06/20 00:42:03;;;;;;;7.70;6.90;;;22.70;99.90;;;;;;5114044;28;20200;-64
2021/06/20 00:44:29;;;;;;;10.23;6.70;;;22.70;99.90;;;;;;5114051;28;20665;-64
2021/06/20 00:46:54;;;;;;;15.83;7.10;;;22.60;99.90;;;;;;5114012;28;20664;-64
2021/06/20 00:49:20;;;;;;;8.97;6.63;;;22.40;99.90;;;;;;5112896;28;20167;-68
2021/06/20 00:51:46;;;;;;;10.00;7.90;;;22.40;99.90;;;;;;5113933;28;20672;-67
2021/06/20 00:54:12;;;;;;;8.30;7.37;;;22.20;99.90;;;;;;5114177;28;20160;-68
2021/06/20 00:56:39;;;;;;;6.97;6.37;;;22.30;99.90;;;;;;5113947;28;20432;-64
2021/06/20 00:59:05;;;;;;;9.37;6.50;;;22.50;99.90;;;;;;5112657;28;20442;-68
2021/06/20 01:01:32;;;;;;;8.60;6.60;;;22.60;99.90;;;;;;5113986;28;20424;-68
2021/06/20 01:03:59;;;;;;;8.37;7.17;;;22.60;99.90;;;;;;5114310;28;20447;-68
2021/06/20 01:06:26;;;;;;;7.50;6.80;;;22.50;99.90;;;;;;5113879;28;20443;-64
2021/06/20 01:08:51;;;;;;;8.97;8.07;;;22.60;99.90;;;;;;5112750;28;20427;-64
2021/06/20 01:11:18;;;;;;;9.40;7.57;;;22.60;99.90;;;;;;5113857;28;20491;-69
2021/06/20 01:13:45;;;;;;;7.17;6.53;;;22.60;99.90;;;;;;5114371;28;20180;-64
2021/06/20 01:16:11;;;;;;;8.97;6.53;;;22.50;99.90;;;;;;5113850;28;20526;-64
2021/06/20 01:18:38;;;;;;;7.47;6.80;;;22.30;99.90;;;;;;5115952;28;21046;-64
2021/06/20 01:21:05;;;;;;;9.03;7.57;;;22.30;99.90;;;;;;5117737;28;20323;-68
2021/06/20 01:23:30;;;;;;;12.27;8.50;;;22.30;99.90;;;;;;5117752;28;20459;-64
2021/06/20 01:25:57;;;;;;;8.57;7.70;;;22.30;99.90;;;;;;5116296;28;20831;-68
2021/06/20 01:28:27;;;;;;;9.87;7.20;;;22.30;99.90;;;;;;5116553;28;20637;-64
2021/06/20 01:30:58;;;;;;;8.03;7.23;;;22.20;99.90;;;;;;5116295;28;20444;-67
2021/06/20 01:33:24;;;;;;;8.83;7.23;;;22.30;99.90;;;;;;5118011;28;20434;-68
2021/06/20 01:35:50;;;;;;;9.70;7.67;;;22.20;99.90;;;;;;5116127;28;20435;-64
2021/06/20 01:38:16;;;;;;;8.83;7.67;;;22.20;99.90;;;;;;5117814;28;20424;-64
2021/06/20 01:40:41;;;;;;;12.93;7.40;;;22.20;99.90;;;;;;5117381;28;20242;-65
2021/06/20 01:43:07;;;;;;;11.40;7.50;;;22.30;99.90;;;;;;5117229;28;20198;-67
2021/06/20 01:45:33;;;;;;;12.87;7.67;;;22.30;99.90;;;;;;5115932;28;20265;-64
2021/06/20 01:48:00;;;;;;;8.07;7.30;;;22.30;99.90;;;;;;5117429;28;20805;-68
2021/06/20 01:50:27;;;;;;;9.00;8.10;;;22.30;99.90;;;;;;5117241;28;20828;-68
2021/06/20 01:53:20;;;;;;;10.87;8.10;;;22.20;99.90;;;;;;5117384;28;20416;-64
2021/06/20 01:55:46;;;;;;;8.00;7.20;;;22.00;99.90;;;;;;5115071;28;20447;-64
2021/06/20 01:58:14;;;;;;;8.80;7.90;;;21.80;99.90;;;;;;5117473;28;20471;-63
2021/06/20 02:00:46;;;;;;;8.27;6.93;;;21.90;99.90;;;;;;5115634;28;20424;-68
2021/06/20 02:03:14;;;;;;;8.43;7.17;;;21.60;99.90;;;;;;5115876;28;20458;-67
2021/06/20 02:05:43;;;;;;;9.67;7.97;;;21.60;99.90;;;;;;5115571;28;20506;-68
2021/06/20 02:08:11;;;;;;;8.20;7.40;;;21.60;99.90;;;;;;5116765;28;20776;-68
2021/06/20 02:10:36;;;;;;;9.83;7.57;;;21.60;99.90;;;;;;5115565;28;20809;-68
2021/06/20 02:13:03;;;;;;;7.80;6.90;;;21.60;99.90;;;;;;5117041;28;20412;-64
2021/06/20 02:15:30;;;;;;;7.67;6.97;;;21.60;99.90;;;;;;5116769;28;20641;-68
2021/06/20 02:17:56;;;;;;;8.50;7.70;;;21.60;99.90;;;;;;5116910;28;20416;-64
2021/06/20 02:20:22;;;;;;;8.00;7.30;;;21.80;99.90;;;;;;5116693;28;20412;-68
2021/06/20 02:22:51;;;;;;;7.67;6.87;;;21.80;99.90;;;;;;5116359;28;20463;-67
2021/06/20 02:25:17;;;;;;;7.80;7.00;;;21.80;99.90;;;;;;5116479;28;20671;-69
2021/06/20 02:27:44;;;;;;;9.60;8.03;;;21.70;99.90;;;;;;5116726;28;20412;-64
2021/06/20 02:30:10;;;;;;;10.30;8.33;;;21.70;99.90;;;;;;5116278;28;20463;-68
2021/06/20 02:32:37;;;;;;;8.83;8.00;;;21.70;99.90;;;;;;5116526;28;20412;-68
2021/06/20 02:35:04;;;;;;;9.20;8.20;;;21.50;99.90;;;;;;5116380;28;20736;-68
2021/06/20 02:37:31;;;;;;;9.77;8.03;;;21.30;99.90;;;;;;5116452;28;20526;-68
2021/06/20 02:39:58;;;;;;;7.90;7.20;;;21.30;99.90;;;;;;5116245;28;20400;-68
2021/06/20 02:42:24;;;;;;;8.27;7.40;;;21.20;99.90;;;;;;5116334;28;20416;-68
2021/06/20 02:44:50;;;;;;;12.40;7.97;;;21.30;99.90;;;;;;5115968;28;20486;-68
2021/06/20 02:47:16;;;;;;;9.03;7.83;;;21.20;99.90;;;;;;5114929;28;20909;-67
2021/06/20 02:49:42;;;;;;;9.00;8.00;;;21.10;99.90;;;;;;5116091;28;20487;-66
2021/06/20 02:52:14;;;;;;;11.40;8.23;;;21.00;99.90;;;;;;5116004;28;20196;-68
2021/06/20 02:54:50;;;;;;;10.80;8.03;;;21.20;99.90;;;;;;5116148;28;20381;-68
2021/06/20 02:57:24;;;;;;;8.67;7.30;;;21.20;99.90;;;;;;5116152;28;20430;-64
2021/06/20 02:59:50;;;;;;;9.63;7.73;;;21.30;99.90;;;;;;5115768;28;20415;-68
2021/06/20 03:02:17;;;;;;;11.90;7.60;;;21.20;99.90;;;;;;5115943;28;20905;-68
2021/06/20 03:04:42;;;;;;;8.40;7.50;;;21.30;99.90;;;;;;5114391;28;20460;-68
2021/06/20 03:07:09;;;;;;;7.10;6.27;;;21.30;99.90;;;;;;5115688;28;20452;-68
2021/06/20 03:09:36;;;;;;;7.80;6.90;;;21.30;99.90;;;;;;5115871;28;20172;-64
2021/06/20 03:12:04;;;;;;;8.87;7.90;;;21.20;99.90;;;;;;5114269;28;20440;-68
2021/06/20 03:14:29;;;;;;;10.80;8.50;;;21.10;99.90;;;;;;5114290;28;20503;-64
2021/06/20 03:16:56;;;;;;;9.17;7.40;;;21.20;99.90;;;;;;5114203;28;20460;-64
2021/06/20 03:19:22;;;;;;;10.50;9.03;;;21.30;99.90;;;;;;5114217;28;20221;-64
2021/06/20 03:21:47;;;;;;;10.33;8.40;;;21.30;99.90;;;;;;5115205;28;20423;-68
2021/06/20 03:24:14;;;;;;;12.83;8.00;;;21.30;99.90;;;;;;5115326;28;20239;-64
2021/06/20 03:26:39;;;;;;;11.53;8.03;;;21.20;99.90;;;;;;5115222;28;20202;-68
2021/06/20 03:29:05;;;;;;;11.00;7.90;;;21.30;99.90;;;;;;5115255;28;20464;-69
2021/06/20 03:31:31;;;;;;;9.00;8.07;;;21.20;99.90;;;;;;5114019;28;20200;-64
2021/06/20 03:33:58;;;;;;;11.50;8.80;;;21.10;99.90;;;;;;5115669;28;20176;-67
2021/06/20 03:36:26;;;;;;;9.47;7.90;;;21.10;99.90;;;;;;5115174;28;20537;-67
2021/06/20 03:38:52;;;;;;;10.53;7.70;;;21.00;99.90;;;;;;5115108;28;20408;-67
2021/06/20 03:41:18;;;;;;;10.13;8.23;;;21.30;99.90;;;;;;5112736;28;20434;-64
2021/06/20 03:43:44;;;;;;;9.20;8.20;;;21.20;99.90;;;;;;5115420;28;20234;-68
2021/06/20 03:46:10;;;;;;;10.73;8.23;;;21.10;99.90;;;;;;5114940;28;20200;-68
2021/06/20 03:48:39;;;;;;;7.83;7.10;;;21.10;99.90;;;;;;5115400;28;20427;-64
2021/06/20 03:51:06;;;;;;;12.67;7.10;;;21.30;99.90;;;;;;5114780;28;20455;-64
2021/06/20 03:53:32;;;;;;;8.73;7.83;;;21.30;99.90;;;;;;5114746;28;20404;-64
2021/06/20 03:55:58;;;;;;;8.97;7.67;;;21.40;99.90;;;;;;5114741;28;20429;-68
2021/06/20 03:58:24;;;;;;;8.67;7.87;;;21.50;99.90;;;;;;5115181;28;20925;-64
2021/06/20 04:00:50;;;;;;;8.13;7.23;;;21.60;99.90;;;;;;5113319;28;20439;-68
2021/06/20 04:03:16;;;;;;;10.07;7.27;;;21.80;99.90;;;;;;5113310;28;20476;-64
2021/06/20 04:05:41;;;;;;;11.20;7.20;;;21.80;99.90;;;;;;5114516;28;20215;-67
2021/06/20 04:08:07;;;;;;;9.10;7.83;;;21.90;99.90;;;;;;5114846;28;20180;-68
2021/06/20 04:10:33;;;;;;;8.50;7.10;;;22.00;99.90;;;;;;5114583;28;20672;-64
2021/06/20 04:12:59;;;;;;;12.47;8.07;;;22.00;99.90;;;;;;5114724;28;20430;-68
2021/06/20 04:15:26;;;;;;;11.10;8.07;;;22.10;99.90;;;;;;5113190;28;20286;-64
2021/06/20 04:17:51;;;;;;;11.60;7.90;;;22.10;99.90;;;;;;5114633;28;20426;-68
2021/06/20 04:20:17;;;;;;;8.37;7.33;;;22.10;99.90;;;;;;5114381;28;20772;-64
2021/06/20 04:22:44;;;;;;;9.00;7.57;;;22.20;99.90;;;;;;5114306;28;20235;-64
2021/06/20 04:25:15;;;;;;;11.70;7.87;;;22.10;99.90;;;;;;5114213;28;20476;-64
2021/06/20 04:27:42;;;;;;;10.70;7.60;;;22.10;99.90;;;;;;5114526;28;20448;-64
2021/06/20 04:30:11;;;;;;;14.17;7.90;;;22.20;99.90;;;;;;5114258;28;20440;-69
2021/06/20 04:32:38;;;;;;;11.90;7.90;;;22.40;99.90;;;;;;5114116;28;20416;-68
2021/06/20 04:35:04;;;;;;;8.70;7.80;;;22.50;99.90;;;;;;5112819;28;20404;-64
2021/06/20 04:37:30;;;;;;;13.17;8.53;;;22.60;99.90;;;;;;5114279;28;20427;-68
2021/06/20 04:39:55;;;;;;;12.80;8.20;;;22.50;99.90;;;;;;5114180;28;20402;-69
2021/06/20 04:42:27;;;;;;;9.53;7.17;;;22.70;99.90;;;;;;5114316;28;20648;-69
2021/06/20 04:44:52;;;;;;;8.00;7.10;;;22.70;99.90;;;;;;5114013;28;20231;-65
2021/06/20 04:47:22;;;;;;;9.90;7.50;;;22.70;99.90;;;;;;5112838;28;20466;-64
2021/06/20 04:49:51;;;;;;;9.80;8.30;;;22.90;99.90;;;;;;5114013;28;20304;-69
2021/06/20 04:52:16;;;;;;;8.70;7.90;;;23.00;99.90;;;;;;5115264;28;20439;-64
2021/06/20 04:54:52;;;;;;;11.43;10.23;;;23.00;99.90;;;;;;5118341;28;20453;-65
2021/06/20 04:57:21;;;;;;;9.37;8.37;;;23.00;99.90;;;;;;5118487;28;20187;-67
2021/06/20 04:59:47;;;;;;;9.20;7.70;;;23.10;99.90;;;;;;5118105;28;20400;-68
2021/06/20 05:02:13;;;;;;;7.73;6.80;;;23.00;99.90;;;;;;5118296;28;20423;-68
2021/06/20 05:04:40;;;;;;;9.40;8.50;;;23.00;99.90;;;;;;5118093;28;20451;-69
2021/06/20 05:07:06;;;;;;;6.80;5.90;;;23.10;99.90;;;;;;5118049;28;20771;-64
2021/06/20 05:09:32;;;;;;;9.23;6.40;;;23.40;99.90;;;;;;5118067;28;20400;-65
2021/06/20 05:11:57;;;;;;;7.80;7.00;;;23.40;99.90;;;;;;5117929;28;20504;-68
2021/06/20 05:14:23;;;;;;;7.87;7.03;;;23.50;99.90;;;;;;5118045;28;20172;-64
2021/06/20 05:16:49;;;;;;;10.37;7.00;;;23.60;99.90;;;;;;5117824;28;20188;-65
2021/06/20 05:19:14;;;;;;;9.60;7.70;;;23.70;99.90;;;;;;5117864;28;20577;-68
2021/06/20 05:21:40;;;;;;;9.17;6.97;;;23.70;99.90;;;;;;5117682;28;20657;-64
2021/06/20 05:24:05;;;;;;;7.50;6.67;;;23.70;99.90;;;;;;5116523;28;20242;-68
2021/06/20 05:26:31;;;;;;;7.93;7.13;;;23.70;99.90;;;;;;5117712;28;20204;-64
2021/06/20 05:28:57;;;;;;;8.00;6.90;;;23.80;99.90;;;;;;5118112;28;20630;-64
2021/06/20 05:31:22;;;;;;;6.73;6.13;;;23.90;99.90;;;;;;5117614;28;20188;-68
2021/06/20 05:33:48;;;;;;;5.97;5.43;;;24.10;99.90;;;;;;5116476;28;20321;-68
2021/06/20 05:36:14;;;;;;;14.57;6.57;;;24.10;99.90;;;;;;5117515;28;20245;-68
2021/06/20 05:38:39;;;;;;;7.67;6.30;;;24.30;99.90;;;;;;5117955;28;20184;-68
2021/06/20 05:41:05;;;;;;;7.43;6.30;;;24.10;99.90;;;;;;5116138;28;20205;-64
2021/06/20 05:43:31;;;;;;;7.77;5.17;;;24.10;99.90;;;;;;5117787;28;20652;-64
2021/06/20 05:45:56;;;;;;;8.60;5.87;;;24.10;99.90;;;;;;5117220;28;20473;-64
2021/06/20 05:48:22;;;;;;;6.70;5.33;;;24.10;99.90;;;;;;5117669;28;20177;-64
2021/06/20 05:50:48;;;;;;;9.00;5.70;;;24.20;99.90;;;;;;5117205;28;20192;-64
2021/06/20 05:53:14;;;;;;;5.70;5.20;;;24.50;99.90;;;;;;5116077;28;20184;-64
2021/06/20 05:55:39;;;;;;;5.63;5.13;;;24.60;99.90;;;;;;5117147;28;20429;-64
2021/06/20 05:58:05;;;;;;;6.03;4.40;;;24.90;99.90;;;;;;5117319;28;20185;-68
2021/06/20 06:00:31;;;;;;;8.17;5.80;;;25.00;99.90;;;;;;5115814;28;20192;-64
2021/06/20 06:02:58;;;;;;;7.10;5.27;;;25.10;99.90;;;;;;5117120;28;20188;-64
2021/06/20 06:05:24;;;;;;;7.07;5.03;;;25.20;99.90;;;;;;5115927;28;20522;-64
2021/06/20 06:07:50;;;;;;;6.17;5.23;;;25.10;99.90;;;;;;5117123;28;20417;-67
2021/06/20 06:10:16;;;;;;;5.77;4.77;;;25.10;99.90;;;;;;5116866;28;20421;-68
2021/06/20 06:12:42;;;;;;;5.90;5.00;;;25.20;99.90;;;;;;5117106;28;20188;-64
2021/06/20 06:15:08;;;;;;;5.13;4.70;;;25.00;99.90;;;;;;5116733;28;20426;-64
2021/06/20 06:17:33;;;;;;;5.57;5.07;;;25.20;99.90;;;;;;5116693;28;20227;-64
2021/06/20 06:19:59;;;;;;;4.30;3.90;;;25.30;99.90;;;;;;5116644;28;20422;-68
2021/06/20 06:22:25;;;;;;;5.27;4.80;;;25.30;99.90;;;;;;5116443;28;20226;-64
2021/06/20 06:24:52;;;;;;;5.90;5.30;;;25.60;99.90;;;;;;5116498;28;20254;-64
2021/06/20 06:27:18;;;;;;;4.90;4.40;;;25.90;99.90;;;;;;5116613;28;20265;-64
2021/06/20 06:29:44;;;;;;;5.67;5.17;;;25.90;99.90;;;;;;5116571;28;20482;-65
2021/06/20 06:32:10;;;;;;;7.40;5.33;;;25.70;99.90;;;;;;5115071;28;20966;-65
2021/06/20 06:34:36;;;;;;;7.63;4.57;;;25.70;99.90;;;;;;5116439;28;20179;-68
2021/06/20 06:37:03;;;;;;;4.03;3.73;;;26.10;99.90;;;;;;5116253;28;20483;-64
2021/06/20 06:39:29;;;;;;;4.87;4.33;;;26.30;99.90;;;;;;5115082;28;20411;-65
2021/06/20 06:41:55;;;;;;;6.67;4.30;;;26.80;99.90;;;;;;5114977;28;20449;-68
2021/06/20 06:44:21;;;;;;;6.93;4.50;;;26.80;99.90;;;;;;5116101;28;20250;-64
2021/06/20 06:46:47;;;;;;;5.70;5.07;;;26.70;99.90;;;;;;5116147;28;20935;-64
2021/06/20 06:49:12;;;;;;;20.03;5.07;;;26.20;99.90;;;;;;5116211;28;20491;-66
2021/06/20 06:51:38;;;;;;;4.00;3.67;;;26.30;99.90;;;;;;5116038;28;20395;-69
2021/06/20 06:54:04;;;;;;;4.50;4.10;;;26.90;99.90;;;;;;5114725;28;20194;-66
2021/06/20 06:56:29;;;;;;;4.30;3.90;;;27.10;99.90;;;;;;5115921;28;20199;-69
2021/06/20 06:58:55;;;;;;;4.13;3.77;;;27.10;99.90;;;;;;5116422;28;20522;-67
2021/06/20 07:01:21;;;;;;;5.10;4.60;;;27.10;99.90;;;;;;5114836;28;20209;-68
2021/06/20 07:03:46;;;;;;;10.43;4.70;;;26.80;99.90;;;;;;5114754;28;20624;-68
2021/06/20 07:06:12;;;;;;;4.83;4.43;;;26.90;99.90;;;;;;5115646;28;20269;-68
2021/06/20 07:08:38;;;;;;;4.47;4.03;;;27.10;99.90;;;;;;5116187;28;20628;-64
2021/06/20 07:11:04;;;;;;;4.43;4.03;;;27.30;99.90;;;;;;5114374;28;20209;-68
2021/06/20 07:13:30;;;;;;;4.20;3.80;;;27.50;99.90;;;;;;5114555;28;20426;-68
2021/06/20 07:15:56;;;;;;;4.50;3.93;;;27.80;99.90;;;;;;5115306;28;20932;-68
2021/06/20 07:18:22;;;;;;;4.37;3.97;;;27.10;99.90;;;;;;5115987;28;20220;-69
2021/06/20 07:20:48;;;;;;;7.23;4.47;;;27.00;99.90;;;;;;5115304;28;20446;-65
2021/06/20 07:23:14;;;;;;;4.10;3.70;;;27.10;99.90;;;;;;5115396;28;20264;-68
2021/06/20 07:25:40;;;;;;;3.77;3.47;;;27.20;99.90;;;;;;5113969;28;20482;-69
2021/06/20 07:28:06;;;;;;;3.97;3.63;;;27.30;99.90;;;;;;5114195;28;20796;-64
2021/06/20 07:30:32;;;;;;;4.77;4.27;;;27.30;99.90;;;;;;5115384;28;20420;-64
2021/06/20 07:32:58;;;;;;;4.60;4.00;;;27.20;99.90;;;;;;5114057;28;20420;-64
2021/06/20 07:35:25;;;;;;;4.90;4.40;;;27.40;99.90;;;;;;5115243;28;20426;-68
2021/06/20 07:37:50;;;;;;;4.07;3.77;;;27.10;99.90;;;;;;5115391;28;20569;-68
2021/06/20 07:40:16;;;;;;;5.90;4.27;;;27.20;99.90;;;;;;5115187;28;20461;-64
2021/06/20 07:42:43;;;;;;;4.20;3.90;;;27.40;99.90;;;;;;5113853;28;20176;-70
2021/06/20 07:45:09;;;;;;;3.70;3.50;;;27.90;99.90;;;;;;5114895;28;20495;-64
2021/06/20 07:47:36;;;;;;;4.03;3.73;;;28.40;99.90;;;;;;5115192;28;20525;-69
2021/06/20 07:50:05;;;;;;;3.70;3.50;;;28.50;99.90;;;;;;5114909;28;20896;-65
2021/06/20 07:52:30;;;;;;;3.70;3.43;;;28.20;99.90;;;;;;5115153;28;20567;-64
2021/06/20 07:54:56;;;;;;;5.83;3.43;;;28.50;99.90;;;;;;5114863;28;20491;-65
2021/06/20 07:57:23;;;;;;;3.70;3.50;;;28.50;99.90;;;;;;5114935;28;20579;-65
2021/06/20 07:59:48;;;;;;;4.60;4.20;;;28.30;99.90;;;;;;5114791;28;20561;-64
2021/06/20 08:02:15;;;;;;;4.10;3.70;;;28.50;99.90;;;;;;5114849;28;20423;-68
2021/06/20 08:04:41;;;;;;;3.63;3.33;;;28.80;99.90;;;;;;5114632;28;20210;-64
2021/06/20 08:07:08;;;;;;;3.50;3.20;;;28.90;99.90;;;;;;5113283;28;20805;-64
2021/06/20 08:09:34;;;;;;;2.90;2.70;;;29.20;99.90;;;;;;5114582;28;20412;-65
2021/06/20 08:12:00;;;;;;;3.53;3.30;;;29.50;99.90;;;;;;5113185;28;20448;-68
2021/06/20 08:14:27;;;;;;;4.23;3.40;;;29.20;99.90;;;;;;5114510;28;20392;-69
2021/06/20 08:16:52;;;;;;;5.10;3.10;;;29.40;99.90;;;;;;5114409;28;20851;-68
2021/06/20 08:19:19;;;;;;;3.00;2.80;;;29.40;99.90;;;;;;5114514;28;20400;-68
2021/06/20 08:21:45;;;;;;;4.53;3.40;;;29.60;99.90;;;;;;5114291;28;20203;-64
2021/06/20 08:24:11;;;;;;;3.77;3.00;;;29.80;99.90;;;;;;5114359;28;20956;-64
2021/06/20 08:26:37;;;;;;;3.10;2.80;;;30.00;99.90;;;;;;5112477;28;20452;-68
2021/06/20 08:29:04;;;;;;;3.80;3.27;;;30.00;99.90;;;;;;5114565;28;20543;-65
2021/06/20 08:31:30;;;;;;;3.60;3.30;;;30.00;99.90;;;;;;5114198;28;20447;-69
2021/06/20 08:33:55;;;;;;;4.23;3.80;;;30.00;99.90;;;;;;5112926;28;20425;-68
2021/06/20 08:36:21;;;;;;;3.50;3.20;;;30.00;99.90;;;;;;5114044;28;20457;-68
2021/06/20 08:38:46;;;;;;;3.73;3.33;;;29.80;99.90;;;;;;5114616;28;20183;-65
2021/06/20 08:41:16;;;;;;;3.60;3.30;;;30.20;99.90;;;;;;5114068;28;20211;-68
2021/06/20 08:43:43;;;;;;;3.40;3.20;;;30.30;99.90;;;;;;5114620;28;20288;-68
2021/06/20 08:46:10;;;;;;;3.10;2.80;;;30.30;99.90;;;;;;5113946;28;20467;-64
2021/06/20 08:48:36;;;;;;;3.83;3.00;;;30.20;99.90;;;;;;5114548;28;20445;-68
2021/06/20 08:51:04;;;;;;;3.37;3.17;;;30.20;99.90;;;;;;5112660;28;20430;-68
2021/06/20 08:53:29;;;;;;;3.13;2.87;;;30.40;99.90;;;;;;5114499;28;20418;-64
2021/06/20 08:55:56;;;;;;;4.47;4.07;;;30.20;99.90;;;;;;5112715;28;20438;-65
2021/06/20 08:58:28;;;;;;;4.47;2.97;;;30.60;99.90;;;;;;5114420;28;20178;-64
2021/06/20 09:00:58;;;;;;;4.33;3.13;;;30.20;99.90;;;;;;5113975;28;20491;-64
2021/06/20 09:03:24;;;;;;;3.53;3.27;;;30.00;99.90;;;;;;5114432;28;20413;-64
2021/06/20 09:06:04;;;;;;;2.70;2.50;;;30.50;99.90;;;;;;5113720;28;20471;-68
2021/06/20 09:08:30;;;;;;;3.43;3.23;;;30.80;99.90;;;;;;5112842;28;20417;-64
2021/06/20 09:10:58;;;;;;;3.43;3.13;;;30.40;99.90;;;;;;5112541;28;20446;-68
2021/06/20 09:13:32;;;;;;;3.37;3.07;;;30.40;99.90;;;;;;5114262;28;20421;-68
2021/06/20 09:16:03;;;;;;;5.27;3.43;;;30.60;99.90;;;;;;5113844;28;20433;-68
2021/06/20 09:18:29;;;;;;;3.67;3.37;;;30.70;99.90;;;;;;5114439;28;20518;-64
2021/06/20 09:20:54;;;;;;;3.03;2.83;;;31.10;99.90;;;;;;5113774;28;20602;-68
2021/06/20 09:23:20;;;;;;;3.60;3.30;;;31.30;99.40;;;;;;5112443;28;20239;-68
2021/06/20 09:26:01;;;;;;;3.40;3.20;;;31.40;99.10;;;;;;5113668;28;20566;-64
2021/06/20 09:28:32;;;;;;;3.30;2.87;;;31.40;98.50;;;;;;5112747;28;20546;-65
2021/06/20 09:31:01;;;;;;;3.27;2.97;;;31.10;98.70;;;;;;5113643;28;20502;-65
2021/06/20 09:33:33;;;;;;;3.37;3.17;;;31.40;98.50;;;;;;5114184;28;20418;-68
2021/06/20 09:35:59;;;;;;;3.17;2.97;;;31.30;98.90;;;;;;5113729;28;20414;-65
2021/06/20 09:38:27;;;;;;;3.37;3.10;;;31.30;98.80;;;;;;5115344;28;20435;-65
2021/06/20 09:41:07;;;;;;;3.77;3.43;;;31.10;98.60;;;;;;5117514;28;20419;-64
2021/06/20 09:43:35;;;;;;;3.33;3.07;;;30.70;99.10;;;;;;5118117;28;20442;-64
2021/06/20 09:46:02;;;;;;;4.70;3.40;;;31.30;99.10;;;;;;5117261;28;20552;-68
2021/06/20 09:48:31;;;;;;;3.80;2.80;;;31.60;98.30;;;;;;5117803;28;20408;-65
2021/06/20 09:51:20;;;;;;;4.37;3.23;;;31.80;97.80;;;;;;5115989;28;20458;-64
2021/06/20 09:53:48;;;;;;;2.80;2.60;;;31.60;97.30;;;;;;5115974;28;20429;-65
2021/06/20 09:56:25;;;;;;;3.10;2.90;;;31.70;97.20;;;;;;5117191;28;20986;-64
2021/06/20 09:59:01;;;;;;;2.40;2.30;;;31.80;97.20;;;;;;5117659;28;20426;-64
2021/06/20 10:01:28;;;;;;;2.73;2.53;;;31.90;97.00;;;;;;5117011;28;20452;-66
2021/06/20 10:03:54;;;;;;;4.10;3.70;;;31.90;96.50;;;;;;5117596;28;20887;-68
2021/06/20 10:06:20;;;;;;;3.63;3.33;;;31.90;96.50;;;;;;5116996;28;20532;-64
2021/06/20 10:08:46;;;;;;;3.30;2.90;;;32.00;96.50;;;;;;5117343;28;20991;-65
2021/06/20 10:11:15;;;;;;;2.77;2.57;;;31.90;96.30;;;;;;5116990;28;20306;-65
2021/06/20 10:13:41;;;;;;;2.90;2.70;;;31.80;95.80;;;;;;5115680;28;20989;-68
2021/06/20 10:16:24;;;;;;;4.03;3.73;;;31.50;96.40;;;;;;5116730;28;20435;-69
2021/06/20 10:19:09;;;;;;;3.43;3.23;;;31.80;96.40;;;;;;5117315;28;20469;-65
2021/06/20 10:21:36;;;;;;;2.97;2.77;;;31.10;96.20;;;;;;5116786;28;20844;-69
2021/06/20 10:24:22;;;;;;;4.53;3.70;;;31.10;96.20;;;;;;5116663;28;20528;-68
2021/06/20 10:26:57;;;;;;;3.13;2.90;;;31.70;96.00;;;;;;5116153;28;20443;-65
2021/06/20 10:29:31;;;;;;;2.70;2.50;;;32.00;96.00;;;;;;5116588;28;20406;-66
2021/06/20 10:31:59;;;;;;;3.00;2.90;;;32.30;95.20;;;;;;5116411;28;20426;-64
2021/06/20 10:34:27;;;;;;;2.90;2.70;;;32.30;93.10;;;;;;5115108;28;20834;-69
2021/06/20 10:36:59;;;;;;;5.03;3.10;;;32.20;94.20;;;;;;5116386;28;20424;-65
2021/06/20 10:39:26;;;;;;;3.00;2.80;;;32.20;93.30;;;;;;5116424;28;20423;-69
2021/06/20 10:42:35;;;;;;;3.27;3.07;;;32.40;94.40;;;;;;5116293;28;20415;-68
2021/06/20 10:45:01;;;;;;;5.33;3.00;;;32.50;94.00;;;;;;5096228;28;20494;-65
2021/06/20 10:47:45;;;;;;;3.40;3.10;;;32.20;94.40;;;;;;5116384;28;20424;-69
2021/06/20 10:50:14;;;;;;;3.20;2.90;;;32.00;94.70;;;;;;5115573;28;20202;-65
2021/06/20 10:52:43;;;;;;;3.10;2.90;;;31.90;95.20;;;;;;5116292;28;20916;-68
2021/06/20 10:55:14;;;;;;;3.07;2.87;;;32.40;94.70;;;;;;5115866;28;20421;-65
2021/06/20 10:57:44;;;;;;;2.83;2.63;;;32.40;94.00;;;;;;5116356;28;20417;-68
2021/06/20 11:00:10;;;;;;;2.43;2.33;;;32.60;93.50;;;;;;5115925;28;20853;-69
2021/06/20 11:02:36;;;;;;;3.20;2.90;;;32.60;93.60;;;;;;5114777;28;20441;-68
2021/06/20 11:05:03;;;;;;;2.90;2.70;;;32.70;93.10;;;;;;5115734;28;20455;-69
2021/06/20 11:07:29;;;;;;;2.50;2.30;;;32.60;92.40;;;;;;5116091;28;20174;-64
2021/06/20 11:09:56;;;;;;;4.70;3.00;;;32.70;92.60;;;;;;5114340;28;20415;-68
2021/06/20 11:12:22;;;;;;;2.83;2.63;;;32.80;92.70;;;;;;5114495;28;20426;-65
2021/06/20 11:14:53;;;;;;;3.13;2.93;;;32.80;92.40;;;;;;5115542;28;20415;-68
2021/06/20 11:17:19;;;;;;;2.80;2.17;;;32.70;92.40;;;;;;5115670;28;20588;-68
2021/06/20 11:19:44;;;;;;;3.17;2.53;;;32.80;92.40;;;;;;5115610;28;20817;-66
2021/06/20 11:22:13;;;;;;;4.13;2.60;;;32.60;92.10;;;;;;5115108;28;20252;-69
2021/06/20 11:24:46;;;;;;;3.27;2.97;;;32.80;92.90;;;;;;5115520;28;20296;-69
2021/06/20 11:27:12;;;;;;;2.90;2.70;;;32.60;92.30;;;;;;5115433;28;20445;-68
2021/06/20 11:29:45;;;;;;;2.30;2.20;;;32.70;91.60;;;;;;5115378;28;20775;-65
2021/06/20 11:32:26;;;;;;;2.60;2.40;;;32.70;92.10;;;;;;5115571;28;20431;-65
2021/06/20 11:35:04;;;;;;;3.20;2.90;;;32.70;92.10;;;;;;5113931;28;20425;-66
2021/06/20 11:37:32;;;;;;;3.10;2.90;;;32.80;92.10;;;;;;5115453;28;20419;-64
2021/06/20 11:40:30;;;;;;;2.80;2.50;;;32.80;91.70;;;;;;5113839;28;20503;-65
2021/06/20 11:42:57;;;;;;;2.67;2.47;;;32.50;91.10;;;;;;5113194;28;20435;-68
2021/06/20 11:45:28;;;;;;;2.60;2.50;;;32.70;91.70;;;;;;5113621;28;20464;-65
2021/06/20 11:47:58;;;;;;;2.63;2.43;;;32.90;91.50;;;;;;5115350;28;20427;-65
2021/06/20 11:50:29;;;;;;;9.73;3.50;;;32.60;91.50;;;;;;5115079;28;20920;-64
2021/06/20 11:52:58;;;;;;;3.40;3.10;;;33.00;91.40;;;;;;5115185;28;20450;-68
2021/06/20 11:55:26;;;;;;;2.93;2.73;;;32.90;91.70;;;;;;5113494;28;20481;-68
2021/06/20 11:57:55;;;;;;;2.90;2.70;;;32.90;92.00;;;;;;5113642;28;20518;-68
2021/06/20 12:00:25;;;;;;;2.67;2.50;;;33.10;91.50;;;;;;5113430;28;20427;-69
2021/06/20 12:03:24;;;;;;;2.93;2.73;;;33.20;91.40;;;;;;5112825;28;20431;-68
2021/06/20 12:05:59;;;;;;;3.00;2.80;;;33.10;90.70;;;;;;5114642;28;20474;-68
2021/06/20 12:08:25;;;;;;;3.57;3.27;;;33.20;90.10;;;;;;5115164;28;20764;-67
2021/06/20 12:10:51;;;;;;;3.80;3.50;;;33.10;89.80;;;;;;5114557;28;20419;-69
2021/06/20 12:13:17;;;;;;;3.60;3.30;;;33.20;90.60;;;;;;5114936;28;20514;-65
2021/06/20 12:15:44;;;;;;;4.07;3.17;;;33.10;90.30;;;;;;5114480;28;20189;-68
2021/06/20 12:18:14;;;;;;;3.20;2.50;;;33.20;90.50;;;;;;5114350;28;20791;-64
2021/06/20 12:20:45;;;;;;;6.17;3.80;;;33.10;90.20;;;;;;5114408;28;20408;-65
2021/06/20 12:23:24;;;;;;;3.57;3.30;;;33.20;90.30;;;;;;5113041;28;20468;-69
2021/06/20 12:25:50;;;;;;;11.20;3.50;;;33.20;89.10;;;;;;5114254;28;20559;-65
2021/06/20 12:28:18;;;;;;;2.57;2.47;;;33.30;90.30;;;;;;5114664;28;20531;-65
2021/06/20 12:30:46;;;;;;;5.90;3.43;;;33.20;90.50;;;;;;5114277;28;20428;-68
2021/06/20 12:33:14;;;;;;;3.67;3.37;;;33.20;90.10;;;;;;5114589;28;20427;-65
2021/06/20 12:35:43;;;;;;;3.20;2.90;;;33.30;90.10;;;;;;5114181;28;20419;-65
2021/06/20 12:38:14;;;;;;;3.97;3.00;;;33.00;89.00;;;;;;5114490;28;20416;-69
2021/06/20 12:40:40;;;;;;;3.47;3.17;;;33.30;89.70;;;;;;5114101;28;20472;-65
2021/06/20 12:43:05;;;;;;;3.67;3.37;;;33.30;89.70;;;;;;5112935;28;20506;-68
2021/06/20 12:45:34;;;;;;;4.50;4.20;;;33.20;89.10;;;;;;5114023;28;20693;-66
2021/06/20 12:48:15;;;;;;;4.07;3.77;;;33.20;89.40;;;;;;5114284;28;20484;-69